sensor_id;sensor_type;location;lat;lon;timestamp;pressure;altitude;pressure_sealevel;temperature;humidity
498;BME280;39559;48.630;9.162;2024-02-23T00:01:09;95614.44;;;3.85;100.00
498;BME280;39559;48.630;9.162;2024-02-23T00:03:36;95625.63;;;3.84;100.00
498;BME280;39559;48.630;9.162;2024-02-23T00:06:02;95625.53;;;3.85;100.00
498;BME280;39559;48.630;9.162;2024-02-23T00:08:27;95626.53;;;3.83;100.00
498;BME280;39559;48.630;9.162;2024-02-23T00:10:53;95616.94;;;3.87;100.00
498;BME280;39559;48.630;9.162;2024-02-23T00:15:25;95624.19;;;3.78;100.00
498;BME280;39559;48.630;9.162;2024-02-23T00:17:51;95637.03;;;3.78;100.00
498;BME280;39559;48.630;9.162;2024-02-23T00:20:16;95659.34;;;3.76;100.00
498;BME280;39559;48.630;9.162;2024-02-23T00:22:42;95663.38;;;3.82;100.00
498;BME280;39559;48.630;9.162;2024-02-23T00:25:07;95660.03;;;3.80;100.00
498;BME280;39559;48.630;9.162;2024-02-23T00:27:33;95646.25;;;3.82;100.00
498;BME280;39559;48.630;9.162;2024-02-23T00:29:59;95655.53;;;3.85;100.00
498;BME280;39559;48.630;9.162;2024-02-23T00:32:25;95669.28;;;3.84;100.00
498;BME280;39559;48.630;9.162;2024-02-23T00:34:50;95670.13;;;3.84;100.00
498;BME280;39559;48.630;9.162;2024-02-23T00:39:24;95659.84;;;3.84;100.00
498;BME280;39559;48.630;9.162;2024-02-23T00:41:49;95657.97;;;3.88;100.00
498;BME280;39559;48.630;9.162;2024-02-23T00:44:15;95651.09;;;3.89;100.00
498;BME280;39559;48.630;9.162;2024-02-23T00:46:40;95656.16;;;3.90;100.00
498;BME280;39559;48.630;9.162;2024-02-23T00:49:06;95643.69;;;3.82;100.00
498;BME280;39559;48.630;9.162;2024-02-23T00:51:32;95647.13;;;3.81;100.00
498;BME280;39559;48.630;9.162;2024-02-23T00:53:57;95667.53;;;3.84;100.00
498;BME280;39559;48.630;9.162;2024-02-23T00:56:23;95665.28;;;3.78;100.00
498;BME280;39559;48.630;9.162;2024-02-23T00:58:48;95677.19;;;3.79;100.00
498;BME280;39559;48.630;9.162;2024-02-23T01:03:22;95687.75;;;3.73;100.00
498;BME280;39559;48.630;9.162;2024-02-23T01:05:48;95667.97;;;3.75;100.00
498;BME280;39559;48.630;9.162;2024-02-23T01:08:14;95672.34;;;3.73;100.00
498;BME280;39559;48.630;9.162;2024-02-23T01:10:39;95684.47;;;3.70;100.00
498;BME280;39559;48.630;9.162;2024-02-23T01:13:05;95676.91;;;3.67;100.00
498;BME280;39559;48.630;9.162;2024-02-23T01:15:31;95666.69;;;3.65;100.00
498;BME280;39559;48.630;9.162;2024-02-23T01:17:56;95654.84;;;3.62;100.00
498;BME280;39559;48.630;9.162;2024-02-23T01:20:22;95664.41;;;3.59;100.00
498;BME280;39559;48.630;9.162;2024-02-23T01:22:48;95668.78;;;3.57;100.00
498;BME280;39559;48.630;9.162;2024-02-23T01:27:21;95683.66;;;3.49;100.00
498;BME280;39559;48.630;9.162;2024-02-23T01:29:47;95690.47;;;3.50;100.00
498;BME280;39559;48.630;9.162;2024-02-23T01:32:13;95682.84;;;3.48;100.00
498;BME280;39559;48.630;9.162;2024-02-23T01:34:38;95691.00;;;3.37;100.00
498;BME280;39559;48.630;9.162;2024-02-23T01:37:04;95688.78;;;3.30;100.00
498;BME280;39559;48.630;9.162;2024-02-23T01:39:29;95683.00;;;3.24;100.00
498;BME280;39559;48.630;9.162;2024-02-23T01:41:55;95696.00;;;3.20;100.00
498;BME280;39559;48.630;9.162;2024-02-23T01:44:21;95691.03;;;3.17;100.00
498;BME280;39559;48.630;9.162;2024-02-23T01:46:47;95703.91;;;3.15;100.00
498;BME280;39559;48.630;9.162;2024-02-23T01:51:19;95698.41;;;3.04;100.00
498;BME280;39559;48.630;9.162;2024-02-23T01:53:46;95702.88;;;2.99;100.00
498;BME280;39559;48.630;9.162;2024-02-23T01:56:13;95707.97;;;3.00;100.00
498;BME280;39559;48.630;9.162;2024-02-23T01:58:43;95701.31;;;2.95;100.00
498;BME280;39559;48.630;9.162;2024-02-23T02:01:09;95718.59;;;2.91;100.00
498;BME280;39559;48.630;9.162;2024-02-23T02:03:35;95709.28;;;2.88;100.00
498;BME280;39559;48.630;9.162;2024-02-23T02:06:01;95715.38;;;2.86;100.00
498;BME280;39559;48.630;9.162;2024-02-23T02:08:28;95712.81;;;2.86;100.00
498;BME280;39559;48.630;9.162;2024-02-23T02:10:53;95718.88;;;2.83;100.00
498;BME280;39559;48.630;9.162;2024-02-23T02:15:18;95737.69;;;2.84;100.00
498;BME280;39559;48.630;9.162;2024-02-23T02:17:45;95736.72;;;2.86;100.00
498;BME280;39559;48.630;9.162;2024-02-23T02:20:13;95729.91;;;2.85;100.00
498;BME280;39559;48.630;9.162;2024-02-23T02:22:39;95722.41;;;2.81;100.00
498;BME280;39559;48.630;9.162;2024-02-23T02:25:06;95726.72;;;2.80;100.00
498;BME280;39559;48.630;9.162;2024-02-23T02:27:31;95737.84;;;2.79;100.00
498;BME280;39559;48.630;9.162;2024-02-23T02:29:57;95741.28;;;2.78;100.00
498;BME280;39559;48.630;9.162;2024-02-23T02:32:23;95728.47;;;2.78;100.00
498;BME280;39559;48.630;9.162;2024-02-23T02:34:49;95728.56;;;2.77;100.00
498;BME280;39559;48.630;9.162;2024-02-23T02:39:17;95716.63;;;2.76;100.00
498;BME280;39559;48.630;9.162;2024-02-23T02:41:43;95720.22;;;2.72;100.00
498;BME280;39559;48.630;9.162;2024-02-23T02:44:08;95723.44;;;2.77;100.00
498;BME280;39559;48.630;9.162;2024-02-23T02:46:35;95719.25;;;2.74;100.00
498;BME280;39559;48.630;9.162;2024-02-23T02:49:01;95721.88;;;2.73;100.00
498;BME280;39559;48.630;9.162;2024-02-23T02:51:27;95727.75;;;2.75;100.00
498;BME280;39559;48.630;9.162;2024-02-23T02:53:52;95722.63;;;2.75;100.00
498;BME280;39559;48.630;9.162;2024-02-23T02:56:17;95727.91;;;2.72;100.00
498;BME280;39559;48.630;9.162;2024-02-23T02:58:43;95728.03;;;2.68;100.00
498;BME280;39559;48.630;9.162;2024-02-23T03:03:16;95726.28;;;2.69;100.00
498;BME280;39559;48.630;9.162;2024-02-23T03:05:42;95721.00;;;2.74;100.00
498;BME280;39559;48.630;9.162;2024-02-23T03:08:07;95726.28;;;2.69;100.00
498;BME280;39559;48.630;9.162;2024-02-23T03:10:33;95727.38;;;2.63;100.00
498;BME280;39559;48.630;9.162;2024-02-23T03:12:59;95720.44;;;2.65;100.00
498;BME280;39559;48.630;9.162;2024-02-23T03:15:24;95719.44;;;2.69;100.00
498;BME280;39559;48.630;9.162;2024-02-23T03:17:50;95707.56;;;2.67;100.00
498;BME280;39559;48.630;9.162;2024-02-23T03:20:15;95719.56;;;2.66;100.00
498;BME280;39559;48.630;9.162;2024-02-23T03:22:41;95715.97;;;2.71;100.00
498;BME280;39559;48.630;9.162;2024-02-23T03:27:16;95717.13;;;2.63;100.00
498;BME280;39559;48.630;9.162;2024-02-23T03:29:41;95719.25;;;2.74;100.00
498;BME280;39559;48.630;9.162;2024-02-23T03:32:07;95703.75;;;2.77;100.00
498;BME280;39559;48.630;9.162;2024-02-23T03:34:32;95711.94;;;2.65;100.00
498;BME280;39559;48.630;9.162;2024-02-23T03:36:58;95717.78;;;2.68;100.00
498;BME280;39559;48.630;9.162;2024-02-23T03:39:25;95712.97;;;2.61;100.00
498;BME280;39559;48.630;9.162;2024-02-23T03:41:51;95731.72;;;2.61;100.00
498;BME280;39559;48.630;9.162;2024-02-23T03:44:16;95729.06;;;2.64;100.00
498;BME280;39559;48.630;9.162;2024-02-23T03:46:41;95735.91;;;2.64;100.00
498;BME280;39559;48.630;9.162;2024-02-23T03:51:14;95738.03;;;2.75;100.00
498;BME280;39559;48.630;9.162;2024-02-23T03:53:39;95738.22;;;2.70;100.00
498;BME280;39559;48.630;9.162;2024-02-23T03:56:05;95721.09;;;2.71;100.00
498;BME280;39559;48.630;9.162;2024-02-23T03:58:31;95706.25;;;2.79;100.00
498;BME280;39559;48.630;9.162;2024-02-23T04:00:56;95704.78;;;2.73;100.00
498;BME280;39559;48.630;9.162;2024-02-23T04:03:22;95705.63;;;2.74;100.00
498;BME280;39559;48.630;9.162;2024-02-23T04:05:47;95723.09;;;2.64;100.00
498;BME280;39559;48.630;9.162;2024-02-23T04:08:13;95718.09;;;2.61;100.00
498;BME280;39559;48.630;9.162;2024-02-23T04:10:38;95727.56;;;2.59;100.00
498;BME280;39559;48.630;9.162;2024-02-23T04:15:14;95718.03;;;2.62;100.00
498;BME280;39559;48.630;9.162;2024-02-23T04:17:40;95715.53;;;2.61;100.00
498;BME280;39559;48.630;9.162;2024-02-23T04:20:07;95720.19;;;2.51;100.00
498;BME280;39559;48.630;9.162;2024-02-23T04:22:33;95720.34;;;2.46;100.00
498;BME280;39559;48.630;9.162;2024-02-23T04:24:58;95716.72;;;2.52;100.00
498;BME280;39559;48.630;9.162;2024-02-23T04:27:24;95718.63;;;2.47;100.00
498;BME280;39559;48.630;9.162;2024-02-23T04:29:49;95714.25;;;2.49;100.00
498;BME280;39559;48.630;9.162;2024-02-23T04:32:15;95696.16;;;2.54;100.00
498;BME280;39559;48.630;9.162;2024-02-23T04:34:40;95701.16;;;2.57;100.00
498;BME280;39559;48.630;9.162;2024-02-23T04:39:13;95717.47;;;2.54;100.00
498;BME280;39559;48.630;9.162;2024-02-23T04:41:39;95701.09;;;2.58;100.00
498;BME280;39559;48.630;9.162;2024-02-23T04:44:05;95702.16;;;2.53;100.00
498;BME280;39559;48.630;9.162;2024-02-23T04:46:31;95701.09;;;2.58;100.00
498;BME280;39559;48.630;9.162;2024-02-23T04:48:56;95691.69;;;2.59;100.00
498;BME280;39559;48.630;9.162;2024-02-23T04:51:22;95685.47;;;2.64;100.00
498;BME280;39559;48.630;9.162;2024-02-23T04:53:50;95683.69;;;2.66;100.00
498;BME280;39559;48.630;9.162;2024-02-23T04:56:16;95675.19;;;2.66;100.00
498;BME280;39559;48.630;9.162;2024-02-23T04:58:42;95670.88;;;2.66;100.00
498;BME280;39559;48.630;9.162;2024-02-23T05:03:13;95677.03;;;2.62;100.00
498;BME280;39559;48.630;9.162;2024-02-23T05:05:39;95675.59;;;2.55;100.00
498;BME280;39559;48.630;9.162;2024-02-23T05:08:05;95685.19;;;2.50;100.00
498;BME280;39559;48.630;9.162;2024-02-23T05:10:30;95689.72;;;2.21;100.00
498;BME280;39559;48.630;9.162;2024-02-23T05:12:56;95695.19;;;1.90;100.00
498;BME280;39559;48.630;9.162;2024-02-23T05:15:21;95715.38;;;1.98;100.00
498;BME280;39559;48.630;9.162;2024-02-23T05:17:47;95728.88;;;2.01;100.00
498;BME280;39559;48.630;9.162;2024-02-23T05:20:13;95724.78;;;1.97;100.00
498;BME280;39559;48.630;9.162;2024-02-23T05:22:39;95719.41;;;2.03;100.00
498;BME280;39559;48.630;9.162;2024-02-23T05:27:13;95725.59;;;1.98;100.00
498;BME280;39559;48.630;9.162;2024-02-23T05:29:38;95722.03;;;2.02;100.00
498;BME280;39559;48.630;9.162;2024-02-23T05:32:04;95730.63;;;2.01;100.00
498;BME280;39559;48.630;9.162;2024-02-23T05:34:29;95734.09;;;1.98;100.00
498;BME280;39559;48.630;9.162;2024-02-23T05:36:55;95745.97;;;2.01;100.00
498;BME280;39559;48.630;9.162;2024-02-23T05:39:21;95746.41;;;1.88;100.00
498;BME280;39559;48.630;9.162;2024-02-23T05:41:47;95752.38;;;1.89;100.00
498;BME280;39559;48.630;9.162;2024-02-23T05:44:12;95754.38;;;1.81;100.00
498;BME280;39559;48.630;9.162;2024-02-23T05:46:38;95768.84;;;1.82;100.00
498;BME280;39559;48.630;9.162;2024-02-23T05:51:11;95784.13;;;1.83;100.00
498;BME280;39559;48.630;9.162;2024-02-23T05:53:37;95775.78;;;1.78;100.00
498;BME280;39559;48.630;9.162;2024-02-23T05:56:03;95777.22;;;1.85;100.00
498;BME280;39559;48.630;9.162;2024-02-23T05:58:28;95780.69;;;1.61;100.00
498;BME280;39559;48.630;9.162;2024-02-23T06:00:54;95785.75;;;1.37;100.00
498;BME280;39559;48.630;9.162;2024-02-23T06:03:19;95791.34;;;1.22;100.00
498;BME280;39559;48.630;9.162;2024-02-23T06:05:45;95789.59;;;1.24;100.00
498;BME280;39559;48.630;9.162;2024-02-23T06:08:11;95787.84;;;1.26;100.00
498;BME280;39559;48.630;9.162;2024-02-23T06:10:37;95794.91;;;1.18;100.00
498;BME280;39559;48.630;9.162;2024-02-23T06:15:12;95813.97;;;1.07;100.00
498;BME280;39559;48.630;9.162;2024-02-23T06:17:38;95826.63;;;1.12;100.00
498;BME280;39559;48.630;9.162;2024-02-23T06:20:06;95825.09;;;1.33;100.00
498;BME280;39559;48.630;9.162;2024-02-23T06:22:33;95813.16;;;1.59;100.00
498;BME280;39559;48.630;9.162;2024-02-23T06:24:58;95808.22;;;1.52;100.00
498;BME280;39559;48.630;9.162;2024-02-23T06:27:24;95802.75;;;1.63;100.00
498;BME280;39559;48.630;9.162;2024-02-23T06:29:50;95801.19;;;1.59;100.00
498;BME280;39559;48.630;9.162;2024-02-23T06:32:16;95790.00;;;1.62;100.00
498;BME280;39559;48.630;9.162;2024-02-23T06:34:41;95782.69;;;1.51;100.00
498;BME280;39559;48.630;9.162;2024-02-23T06:39:11;95778.47;;;1.25;100.00
498;BME280;39559;48.630;9.162;2024-02-23T06:41:38;95785.84;;;1.34;100.00
498;BME280;39559;48.630;9.162;2024-02-23T06:44:07;95785.44;;;1.46;100.00
498;BME280;39559;48.630;9.162;2024-02-23T06:46:32;95785.94;;;1.56;100.00
498;BME280;39559;48.630;9.162;2024-02-23T06:48:58;95776.25;;;1.41;100.00
498;BME280;39559;48.630;9.162;2024-02-23T06:51:23;95777.84;;;1.43;100.00
498;BME280;39559;48.630;9.162;2024-02-23T06:53:49;95774.88;;;1.56;100.00
498;BME280;39559;48.630;9.162;2024-02-23T06:56:14;95764.31;;;1.65;100.00
498;BME280;39559;48.630;9.162;2024-02-23T06:58:40;95765.63;;;1.77;100.00
498;BME280;39559;48.630;9.162;2024-02-23T07:03:11;95758.34;;;1.89;100.00
498;BME280;39559;48.630;9.162;2024-02-23T07:05:37;95760.63;;;1.97;100.00
498;BME280;39559;48.630;9.162;2024-02-23T07:08:03;95755.22;;;2.05;100.00
498;BME280;39559;48.630;9.162;2024-02-23T07:10:28;95759.31;;;2.09;100.00
498;BME280;39559;48.630;9.162;2024-02-23T07:12:54;95752.19;;;2.17;100.00
498;BME280;39559;48.630;9.162;2024-02-23T07:15:21;95753.25;;;2.35;100.00
498;BME280;39559;48.630;9.162;2024-02-23T07:17:47;95748.69;;;2.42;100.00
498;BME280;39559;48.630;9.162;2024-02-23T07:20:13;95746.13;;;2.42;100.00
498;BME280;39559;48.630;9.162;2024-02-23T07:22:39;95749.34;;;2.47;100.00
498;BME280;39559;48.630;9.162;2024-02-23T07:27:11;95739.34;;;2.63;100.00
498;BME280;39559;48.630;9.162;2024-02-23T07:29:37;95748.13;;;2.57;100.00
498;BME280;39559;48.630;9.162;2024-02-23T07:32:02;95751.19;;;2.65;100.00
498;BME280;39559;48.630;9.162;2024-02-23T07:34:28;95746.22;;;2.62;100.00
498;BME280;39559;48.630;9.162;2024-02-23T07:36:54;95750.84;;;2.75;100.00
498;BME280;39559;48.630;9.162;2024-02-23T07:39:20;95740.66;;;2.73;100.00
498;BME280;39559;48.630;9.162;2024-02-23T07:41:47;95745.59;;;2.78;100.00
498;BME280;39559;48.630;9.162;2024-02-23T07:44:13;95740.41;;;2.79;100.00
498;BME280;39559;48.630;9.162;2024-02-23T07:46:38;95744.56;;;2.82;100.00
498;BME280;39559;48.630;9.162;2024-02-23T07:51:11;95748.81;;;2.83;100.00
498;BME280;39559;48.630;9.162;2024-02-23T07:53:37;95748.81;;;2.83;100.00
498;BME280;39559;48.630;9.162;2024-02-23T07:56:02;95738.47;;;3.06;100.00
498;BME280;39559;48.630;9.162;2024-02-23T07:58:29;95748.78;;;3.05;100.00
498;BME280;39559;48.630;9.162;2024-02-23T08:00:54;95749.81;;;3.01;100.00
498;BME280;39559;48.630;9.162;2024-02-23T08:03:20;95736.88;;;2.82;100.00
498;BME280;39559;48.630;9.162;2024-02-23T08:05:45;95729.69;;;2.92;100.00
498;BME280;39559;48.630;9.162;2024-02-23T08:08:12;95731.38;;;3.13;100.00
498;BME280;39559;48.630;9.162;2024-02-23T08:10:38;95724.75;;;3.28;100.00
498;BME280;39559;48.630;9.162;2024-02-23T08:15:11;95724.88;;;3.25;100.00
498;BME280;39559;48.630;9.162;2024-02-23T08:17:36;95730.66;;;3.30;100.00
498;BME280;39559;48.630;9.162;2024-02-23T08:20:02;95736.22;;;3.40;100.00
498;BME280;39559;48.630;9.162;2024-02-23T08:22:29;95729.81;;;3.50;100.00
498;BME280;39559;48.630;9.162;2024-02-23T08:24:55;95740.34;;;3.44;100.00
498;BME280;39559;48.630;9.162;2024-02-23T08:27:20;95743.59;;;3.27;100.00
498;BME280;39559;48.630;9.162;2024-02-23T08:29:46;95733.25;;;3.49;100.00
498;BME280;39559;48.630;9.162;2024-02-23T08:32:11;95737.22;;;3.56;100.00
498;BME280;39559;48.630;9.162;2024-02-23T08:34:39;95744.16;;;3.54;100.00
498;BME280;39559;48.630;9.162;2024-02-23T08:39:11;95759.06;;;3.46;100.00
498;BME280;39559;48.630;9.162;2024-02-23T08:41:37;95761.88;;;3.40;100.00
498;BME280;39559;48.630;9.162;2024-02-23T08:44:02;95764.00;;;3.30;100.00
498;BME280;39559;48.630;9.162;2024-02-23T08:46:28;95767.59;;;3.46;100.00
498;BME280;39559;48.630;9.162;2024-02-23T08:48:53;95764.94;;;3.69;100.00
498;BME280;39559;48.630;9.162;2024-02-23T08:51:19;95764.44;;;3.60;100.00
498;BME280;39559;48.630;9.162;2024-02-23T08:53:45;95756.53;;;3.65;100.00
498;BME280;39559;48.630;9.162;2024-02-23T08:56:11;95755.94;;;3.79;100.00
498;BME280;39559;48.630;9.162;2024-02-23T08:58:37;95748.72;;;3.68;100.00
498;BME280;39559;48.630;9.162;2024-02-23T09:03:11;95740.78;;;3.73;100.00
498;BME280;39559;48.630;9.162;2024-02-23T09:05:37;95738.09;;;3.76;100.00
498;BME280;39559;48.630;9.162;2024-02-23T09:08:02;95739.78;;;3.77;100.00
498;BME280;39559;48.630;9.162;2024-02-23T09:10:28;95739.38;;;3.86;100.00
498;BME280;39559;48.630;9.162;2024-02-23T09:12:53;95736.63;;;4.10;100.00
498;BME280;39559;48.630;9.162;2024-02-23T09:15:19;95736.28;;;3.78;100.00
498;BME280;39559;48.630;9.162;2024-02-23T09:17:44;95735.06;;;3.87;100.00
498;BME280;39559;48.630;9.162;2024-02-23T09:20:11;95737.69;;;3.85;100.00
498;BME280;39559;48.630;9.162;2024-02-23T09:22:36;95736.22;;;3.79;100.00
498;BME280;39559;48.630;9.162;2024-02-23T09:27:11;95743.13;;;4.36;100.00
498;BME280;39559;48.630;9.162;2024-02-23T09:29:37;95751.16;;;4.09;100.00
498;BME280;39559;48.630;9.162;2024-02-23T09:32:02;95749.28;;;3.75;100.00
498;BME280;39559;48.630;9.162;2024-02-23T09:34:28;95751.16;;;3.71;100.00
498;BME280;39559;48.630;9.162;2024-02-23T09:36:54;95755.56;;;4.07;100.00
498;BME280;39559;48.630;9.162;2024-02-23T09:39:20;95757.69;;;4.16;100.00
498;BME280;39559;48.630;9.162;2024-02-23T09:41:50;95751.81;;;4.14;100.00
498;BME280;39559;48.630;9.162;2024-02-23T09:44:17;95754.03;;;4.41;100.00
498;BME280;39559;48.630;9.162;2024-02-23T09:46:44;95746.72;;;4.51;100.00
498;BME280;39559;48.630;9.162;2024-02-23T09:51:15;95761.19;;;4.53;100.00
498;BME280;39559;48.630;9.162;2024-02-23T09:53:41;95756.19;;;4.50;100.00
498;BME280;39559;48.630;9.162;2024-02-23T09:56:10;95755.03;;;4.75;100.00
498;BME280;39559;48.630;9.162;2024-02-23T09:58:37;95746.78;;;4.68;100.00
498;BME280;39559;48.630;9.162;2024-02-23T10:01:03;95757.13;;;4.67;100.00
498;BME280;39559;48.630;9.162;2024-02-23T10:03:30;95759.38;;;4.55;100.00
498;BME280;39559;48.630;9.162;2024-02-23T10:05:59;95750.41;;;4.64;100.00
498;BME280;39559;48.630;9.162;2024-02-23T10:08:30;95750.91;;;4.53;100.00
498;BME280;39559;48.630;9.162;2024-02-23T10:10:56;95748.66;;;4.65;100.00
498;BME280;39559;48.630;9.162;2024-02-23T10:15:11;95758.31;;;4.59;100.00
498;BME280;39559;48.630;9.162;2024-02-23T10:17:36;95757.94;;;4.67;100.00
498;BME280;39559;48.630;9.162;2024-02-23T10:20:02;95754.25;;;4.73;100.00
498;BME280;39559;48.630;9.162;2024-02-23T10:22:31;95763.13;;;4.85;100.00
498;BME280;39559;48.630;9.162;2024-02-23T10:24:57;95764.41;;;4.76;100.00
498;BME280;39559;48.630;9.162;2024-02-23T10:27:23;95764.72;;;4.87;100.00
498;BME280;39559;48.630;9.162;2024-02-23T10:29:50;95749.44;;;4.84;100.00
498;BME280;39559;48.630;9.162;2024-02-23T10:32:18;95753.66;;;4.68;100.00
498;BME280;39559;48.630;9.162;2024-02-23T10:34:47;95751.28;;;4.63;100.00
498;BME280;39559;48.630;9.162;2024-02-23T10:39:11;95744.34;;;4.65;100.00
498;BME280;39559;48.630;9.162;2024-02-23T10:41:47;95757.44;;;4.78;100.00
498;BME280;39559;48.630;9.162;2024-02-23T10:44:14;95757.50;;;4.76;100.00
498;BME280;39559;48.630;9.162;2024-02-23T10:46:41;95749.53;;;4.83;100.00
498;BME280;39559;48.630;9.162;2024-02-23T10:49:07;95758.50;;;4.74;100.00
498;BME280;39559;48.630;9.162;2024-02-23T10:51:34;95757.34;;;4.98;100.00
498;BME280;39559;48.630;9.162;2024-02-23T10:54:01;95750.97;;;5.06;100.00
498;BME280;39559;48.630;9.162;2024-02-23T10:56:28;95748.94;;;5.12;100.00
498;BME280;39559;48.630;9.162;2024-02-23T10:58:54;95744.00;;;4.90;100.00
498;BME280;39559;48.630;9.162;2024-02-23T11:03:10;95741.69;;;5.21;100.00
498;BME280;39559;48.630;9.162;2024-02-23T11:05:36;95737.88;;;5.10;100.00
498;BME280;39559;48.630;9.162;2024-02-23T11:08:05;95746.28;;;5.14;100.00
498;BME280;39559;48.630;9.162;2024-02-23T11:10:31;95744.47;;;4.98;100.00
498;BME280;39559;48.630;9.162;2024-02-23T11:13:08;95729.84;;;5.16;100.00
498;BME280;39559;48.630;9.162;2024-02-23T11:15:34;95731.75;;;5.13;100.00
498;BME280;39559;48.630;9.162;2024-02-23T11:18:30;95724.97;;;5.12;100.00
498;BME280;39559;48.630;9.162;2024-02-23T11:21:00;95716.91;;;5.18;100.00
498;BME280;39559;48.630;9.162;2024-02-23T11:23:38;95724.03;;;5.30;100.00
498;BME280;39559;48.630;9.162;2024-02-23T11:27:14;95726.00;;;5.43;100.00
498;BME280;39559;48.630;9.162;2024-02-23T11:29:42;95725.25;;;5.23;100.00
498;BME280;39559;48.630;9.162;2024-02-23T11:32:18;95714.81;;;5.26;100.00
498;BME280;39559;48.630;9.162;2024-02-23T11:34:56;95719.50;;;5.69;100.00
498;BME280;39559;48.630;9.162;2024-02-23T11:37:28;95714.22;;;5.72;100.00
498;BME280;39559;48.630;9.162;2024-02-23T11:39:54;95714.28;;;5.70;100.00
498;BME280;39559;48.630;9.162;2024-02-23T11:42:20;95723.97;;;5.83;100.00
498;BME280;39559;48.630;9.162;2024-02-23T11:44:49;95722.13;;;5.85;100.00
498;BME280;39559;48.630;9.162;2024-02-23T11:47:15;95708.91;;;5.75;100.00
498;BME280;39559;48.630;9.162;2024-02-23T11:51:10;95704.53;;;5.60;100.00
498;BME280;39559;48.630;9.162;2024-02-23T11:53:39;95712.59;;;5.69;100.00
498;BME280;39559;48.630;9.162;2024-02-23T11:56:05;95710.47;;;5.77;100.00
498;BME280;39559;48.630;9.162;2024-02-23T11:58:34;95710.28;;;5.65;100.00
498;BME280;39559;48.630;9.162;2024-02-23T12:01:01;95705.66;;;5.87;100.00
498;BME280;39559;48.630;9.162;2024-02-23T12:03:34;95710.22;;;6.00;100.00
498;BME280;39559;48.630;9.162;2024-02-23T12:06:00;95705.00;;;5.84;100.00
498;BME280;39559;48.630;9.162;2024-02-23T12:08:28;95704.06;;;6.18;100.00
498;BME280;39559;48.630;9.162;2024-02-23T12:11:04;95697.09;;;6.36;100.00
498;BME280;39559;48.630;9.162;2024-02-23T12:15:09;95696.59;;;5.80;100.00
498;BME280;39559;48.630;9.162;2024-02-23T12:17:36;95703.47;;;5.64;100.00
498;BME280;39559;48.630;9.162;2024-02-23T12:20:09;95699.69;;;5.87;100.00
498;BME280;39559;48.630;9.162;2024-02-23T12:22:34;95690.88;;;5.91;100.00
498;BME280;39559;48.630;9.162;2024-02-23T12:25:00;95698.22;;;5.65;100.00
498;BME280;39559;48.630;9.162;2024-02-23T12:27:26;95696.72;;;5.61;100.00
498;BME280;39559;48.630;9.162;2024-02-23T12:29:53;95701.47;;;5.69;100.00
498;BME280;39559;48.630;9.162;2024-02-23T12:32:25;95696.47;;;5.50;100.00
498;BME280;39559;48.630;9.162;2024-02-23T12:34:53;95699.78;;;5.52;100.00
498;BME280;39559;48.630;9.162;2024-02-23T12:39:11;95697.75;;;5.74;100.00
498;BME280;39559;48.630;9.162;2024-02-23T12:41:37;95691.03;;;5.72;100.00
498;BME280;39559;48.630;9.162;2024-02-23T12:44:02;95693.00;;;5.67;100.00
498;BME280;39559;48.630;9.162;2024-02-23T12:46:28;95697.25;;;6.01;100.00
498;BME280;39559;48.630;9.162;2024-02-23T12:48:54;95692.19;;;6.00;100.00
498;BME280;39559;48.630;9.162;2024-02-23T12:51:25;95685.91;;;5.88;100.00
498;BME280;39559;48.630;9.162;2024-02-23T12:53:50;95684.88;;;5.74;100.00
498;BME280;39559;48.630;9.162;2024-02-23T12:56:21;95687.75;;;5.86;100.00
498;BME280;39559;48.630;9.162;2024-02-23T12:58:48;95680.84;;;5.86;100.00
498;BME280;39559;48.630;9.162;2024-02-23T13:03:10;95686.97;;;6.17;100.00
498;BME280;39559;48.630;9.162;2024-02-23T13:05:36;95680.63;;;6.23;100.00
498;BME280;39559;48.630;9.162;2024-02-23T13:08:02;95683.63;;;5.99;100.00
498;BME280;39559;48.630;9.162;2024-02-23T13:10:27;95679.41;;;5.81;100.00
498;BME280;39559;48.630;9.162;2024-02-23T13:12:53;95684.28;;;6.03;100.00
498;BME280;39559;48.630;9.162;2024-02-23T13:15:20;95692.03;;;6.03;100.00
498;BME280;39559;48.630;9.162;2024-02-23T13:17:46;95684.69;;;5.95;100.00
498;BME280;39559;48.630;9.162;2024-02-23T13:20:12;95692.72;;;5.89;100.00
498;BME280;39559;48.630;9.162;2024-02-23T13:22:38;95684.81;;;5.92;100.00
498;BME280;39559;48.630;9.162;2024-02-23T13:27:08;95681.50;;;5.90;100.00
498;BME280;39559;48.630;9.162;2024-02-23T13:29:33;95676.63;;;6.01;100.00
498;BME280;39559;48.630;9.162;2024-02-23T13:31:59;95671.50;;;6.17;100.00
498;BME280;39559;48.630;9.162;2024-02-23T13:34:25;95673.97;;;6.34;100.00
498;BME280;39559;48.630;9.162;2024-02-23T13:36:51;95674.81;;;6.03;100.00
498;BME280;39559;48.630;9.162;2024-02-23T13:39:18;95665.56;;;6.47;100.00
498;BME280;39559;48.630;9.162;2024-02-23T13:41:43;95665.50;;;6.17;100.00
498;BME280;39559;48.630;9.162;2024-02-23T13:44:10;95658.38;;;6.06;100.00
498;BME280;39559;48.630;9.162;2024-02-23T13:46:39;95651.03;;;5.98;100.00
498;BME280;39559;48.630;9.162;2024-02-23T13:51:08;95627.72;;;6.47;100.00
498;BME280;39559;48.630;9.162;2024-02-23T13:53:33;95637.00;;;6.66;100.00
498;BME280;39559;48.630;9.162;2024-02-23T13:56:03;95633.22;;;6.41;100.00
498;BME280;39559;48.630;9.162;2024-02-23T13:58:29;95628.19;;;6.54;100.00
498;BME280;39559;48.630;9.162;2024-02-23T14:00:54;95625.97;;;6.78;100.00
498;BME280;39559;48.630;9.162;2024-02-23T14:03:21;95624.91;;;6.36;100.00
498;BME280;39559;48.630;9.162;2024-02-23T14:05:48;95629.75;;;6.42;100.00
498;BME280;39559;48.630;9.162;2024-02-23T14:08:13;95629.13;;;6.83;100.00
498;BME280;39559;48.630;9.162;2024-02-23T14:10:40;95619.41;;;7.03;100.00
498;BME280;39559;48.630;9.162;2024-02-23T14:15:08;95629.31;;;6.34;100.00
498;BME280;39559;48.630;9.162;2024-02-23T14:17:36;95617.53;;;6.30;100.00
498;BME280;39559;48.630;9.162;2024-02-23T14:20:03;95622.97;;;6.56;100.00
498;BME280;39559;48.630;9.162;2024-02-23T14:22:30;95631.19;;;6.62;100.00
498;BME280;39559;48.630;9.162;2024-02-23T14:24:58;95636.63;;;6.42;100.00
498;BME280;39559;48.630;9.162;2024-02-23T14:27:24;95643.59;;;6.56;100.00
498;BME280;39559;48.630;9.162;2024-02-23T14:29:53;95629.44;;;6.63;100.00